createdAt,value
2022-12-05T00:02:02.039Z,34.00
2022-12-05T00:04:30.203Z,33.90
2022-12-05T00:06:58.414Z,33.70
2022-12-05T00:09:26.451Z,33.60
2022-12-05T00:11:57.657Z,33.80
2022-12-05T00:14:25.910Z,34.20
2022-12-05T00:16:53.983Z,34.50
2022-12-05T00:19:22.727Z,34.80
2022-12-05T00:21:50.794Z,35.00
2022-12-05T00:24:19.942Z,35.20
2022-12-05T00:26:48.113Z,35.30
2022-12-05T00:29:17.486Z,34.80
2022-12-05T00:31:45.734Z,34.60
2022-12-05T00:34:13.775Z,34.40
2022-12-05T00:36:41.876Z,34.30
2022-12-05T00:39:10.766Z,34.10
2022-12-05T00:41:38.893Z,34.00
2022-12-05T00:44:07.021Z,33.80
2022-12-05T00:46:36.650Z,33.70
2022-12-05T00:49:05.816Z,34.20
2022-12-05T00:51:34.691Z,34.50
2022-12-05T00:54:04.055Z,34.80
2022-12-05T00:56:32.364Z,35.10
2022-12-05T00:59:00.981Z,34.80
2022-12-05T01:01:32.531Z,34.60
2022-12-05T01:04:04.059Z,34.30
2022-12-05T01:06:32.377Z,34.20
2022-12-05T01:09:04.908Z,34.00
2022-12-05T01:11:37.639Z,33.90
2022-12-05T01:14:09.142Z,33.70
2022-12-05T01:16:38.335Z,33.60
2022-12-05T01:19:10.025Z,34.00
2022-12-05T01:21:38.425Z,34.40
2022-12-05T01:24:10.267Z,34.60
2022-12-05T01:26:38.525Z,34.90
2022-12-05T01:29:08.749Z,34.80
2022-12-05T01:31:38.077Z,34.50
2022-12-05T01:34:09.045Z,34.30
2022-12-05T01:36:39.409Z,34.20
2022-12-05T01:39:08.201Z,34.00
2022-12-05T01:41:38.002Z,33.80
2022-12-05T01:44:07.691Z,33.70
2022-12-05T01:46:36.812Z,33.60
2022-12-05T01:49:09.352Z,33.90
2022-12-05T01:51:38.536Z,34.30
2022-12-05T01:54:06.954Z,34.50
2022-12-05T01:56:35.449Z,34.80
2022-12-05T01:59:04.685Z,35.00
2022-12-05T02:01:32.851Z,35.20
2022-12-05T02:04:01.399Z,34.30
2022-12-05T02:06:30.819Z,34.20
2022-12-05T02:08:58.894Z,34.00
2022-12-05T02:11:28.365Z,33.90
2022-12-05T02:14:19.972Z,33.80
2022-12-05T02:16:56.985Z,33.60
2022-12-05T02:19:41.461Z,33.60
2022-12-05T02:22:22.599Z,34.10
2022-12-05T02:25:16.651Z,34.50
2022-12-05T02:28:21.835Z,34.90
2022-12-05T02:30:54.276Z,35.00
2022-12-05T02:33:23.904Z,35.30
2022-12-05T02:35:55.609Z,35.10
2022-12-05T02:38:27.925Z,34.70
2022-12-05T02:41:01.456Z,34.50
2022-12-05T02:43:32.117Z,34.30
2022-12-05T02:46:03.430Z,34.20
2022-12-05T02:48:31.914Z,34.00
2022-12-05T02:51:00.737Z,33.80
2022-12-05T02:53:28.948Z,33.70
2022-12-05T02:55:57.266Z,33.90
2022-12-05T02:58:28.022Z,34.40
2022-12-05T03:00:58.168Z,34.70
2022-12-05T03:03:27.788Z,34.80
2022-12-05T03:05:59.904Z,35.00
2022-12-05T03:08:30.875Z,34.60
2022-12-05T03:10:59.172Z,34.40
2022-12-05T03:13:32.899Z,34.20
2022-12-05T03:16:02.432Z,34.10
2022-12-05T03:18:32.700Z,33.90
2022-12-05T03:21:02.016Z,33.80
2022-12-05T03:23:32.133Z,33.70
2022-12-05T03:26:05.173Z,33.90
2022-12-05T03:28:33.987Z,34.30
2022-12-05T03:31:03.553Z,34.60
2022-12-05T03:33:36.275Z,34.90
2022-12-05T03:36:06.625Z,35.00
2022-12-05T03:38:41.321Z,34.70
2022-12-05T03:41:10.949Z,34.40
2022-12-05T03:43:41.511Z,34.30
2022-12-05T03:46:11.234Z,34.00
2022-12-05T03:48:57.120Z,33.90
2022-12-05T03:51:33.679Z,33.80
2022-12-05T03:54:05.841Z,33.60
2022-12-05T03:56:36.536Z,33.60
2022-12-05T03:59:08.427Z,34.10
2022-12-05T04:01:36.900Z,34.50
2022-12-05T04:04:09.709Z,34.70
2022-12-05T04:06:39.060Z,34.90
2022-12-05T04:09:13.751Z,34.60
2022-12-05T04:11:46.692Z,34.40
2022-12-05T04:14:16.383Z,34.30
2022-12-05T04:17:03.722Z,34.00
2022-12-05T04:19:51.086Z,33.90
2022-12-05T04:22:19.781Z,33.80
2022-12-05T04:25:05.507Z,33.60
2022-12-05T04:27:37.470Z,33.60
2022-12-05T04:30:08.065Z,34.10
2022-12-05T04:32:39.578Z,34.40
2022-12-05T04:35:12.707Z,34.80
2022-12-05T04:37:41.969Z,35.00
2022-12-05T04:40:13.115Z,35.10
2022-12-05T04:42:42.738Z,35.30
2022-12-05T04:45:12.092Z,34.80
2022-12-05T04:47:41.516Z,34.60
2022-12-05T04:50:12.187Z,34.40
2022-12-05T04:52:40.600Z,34.30
2022-12-05T04:55:10.121Z,34.10
2022-12-05T04:57:41.651Z,34.00
2022-12-05T05:00:10.660Z,33.80
2022-12-05T05:02:41.990Z,33.70
2022-12-05T05:05:14.305Z,34.20
2022-12-05T05:07:48.783Z,34.50
2022-12-05T05:10:18.839Z,34.80
2022-12-05T05:12:47.348Z,35.00
2022-12-05T05:15:15.694Z,34.70
2022-12-05T05:17:44.030Z,34.60
2022-12-05T05:20:27.941Z,34.40
2022-12-05T05:22:58.920Z,34.20
2022-12-05T05:25:27.185Z,34.00
2022-12-05T05:27:56.460Z,33.80
2022-12-05T05:30:25.784Z,33.70
2022-12-05T05:32:55.537Z,33.60
2022-12-05T05:35:25.250Z,34.00
2022-12-05T05:37:53.500Z,34.40
2022-12-05T05:40:22.085Z,34.60
2022-12-05T05:42:50.759Z,35.00
2022-12-05T05:45:19.342Z,34.90
2022-12-05T05:47:49.209Z,34.60
2022-12-05T05:50:21.410Z,34.40
2022-12-05T05:52:51.658Z,34.20
2022-12-05T05:55:20.042Z,34.00
2022-12-05T05:57:48.279Z,33.90
2022-12-05T06:00:17.529Z,33.80
2022-12-05T06:02:45.779Z,33.60
2022-12-05T06:05:14.274Z,33.80
2022-12-05T06:07:42.498Z,34.20
2022-12-05T06:10:12.741Z,34.60
2022-12-05T06:12:40.886Z,34.90
2022-12-05T06:15:10.150Z,35.00
2022-12-05T06:17:38.415Z,34.70
2022-12-05T06:20:08.740Z,35.00
2022-12-05T06:22:36.854Z,34.30
2022-12-05T06:25:08.816Z,34.00
2022-12-05T06:27:38.475Z,33.90
2022-12-05T06:30:08.623Z,33.80
2022-12-05T06:32:36.992Z,33.80
2022-12-05T06:35:15.318Z,33.60
2022-12-05T06:37:43.615Z,34.10
2022-12-05T06:40:12.248Z,34.50
2022-12-05T06:42:43.791Z,34.70
2022-12-05T06:45:12.919Z,35.00
2022-12-05T06:47:41.670Z,35.20
2022-12-05T06:50:10.685Z,35.30
2022-12-05T06:52:38.828Z,35.00
2022-12-05T06:55:08.927Z,34.70
2022-12-05T06:57:37.038Z,34.50
2022-12-05T07:00:25.679Z,34.30
2022-12-05T07:02:54.058Z,34.20
2022-12-05T07:05:24.305Z,34.00
2022-12-05T07:07:52.406Z,33.90
2022-12-05T07:10:20.495Z,33.80
2022-12-05T07:12:48.549Z,34.20
2022-12-05T07:15:18.166Z,34.50
2022-12-05T07:17:46.160Z,34.80
2022-12-05T07:20:17.791Z,35.00
2022-12-05T07:22:45.965Z,35.00
2022-12-05T07:25:14.050Z,34.70
2022-12-05T07:27:42.096Z,34.40
2022-12-05T07:30:10.974Z,34.30
2022-12-05T07:32:40.370Z,34.10
2022-12-05T07:35:09.286Z,34.00
2022-12-05T07:37:37.367Z,33.90
2022-12-05T07:40:06.533Z,33.70
2022-12-05T07:42:34.532Z,33.90
2022-12-05T07:45:02.546Z,34.30
2022-12-05T07:47:30.850Z,34.60
2022-12-05T07:50:00.607Z,34.80
2022-12-05T07:52:28.976Z,35.00
2022-12-05T07:54:57.040Z,34.60
2022-12-05T07:57:25.314Z,34.50
2022-12-05T07:59:53.348Z,34.30
2022-12-05T08:02:21.976Z,34.00
2022-12-05T08:04:50.061Z,34.00
2022-12-05T08:07:19.513Z,33.80
2022-12-05T08:09:47.527Z,33.70
2022-12-05T08:12:15.607Z,33.60
2022-12-05T08:14:43.604Z,34.20
2022-12-05T08:17:11.695Z,34.40
2022-12-05T08:19:39.904Z,34.70
2022-12-05T08:22:07.948Z,34.90
2022-12-05T08:24:37.685Z,34.80
2022-12-05T08:27:05.990Z,34.60
2022-12-05T08:29:34.059Z,34.40
2022-12-05T08:32:02.178Z,34.10
2022-12-05T08:34:30.329Z,34.00
2022-12-05T08:36:58.394Z,33.90
2022-12-05T08:39:27.387Z,33.70
2022-12-05T08:41:56.850Z,33.60
2022-12-05T08:44:25.196Z,33.90
2022-12-05T08:46:53.351Z,34.20
2022-12-05T08:49:21.410Z,34.60
2022-12-05T08:51:49.400Z,34.70
2022-12-05T08:54:18.070Z,35.00
2022-12-05T08:56:46.142Z,35.20
2022-12-05T08:59:15.607Z,35.30
2022-12-05T09:01:44.197Z,34.80
2022-12-05T09:04:12.606Z,34.60
2022-12-05T09:06:41.037Z,34.50
2022-12-05T09:09:11.432Z,34.30
2022-12-05T09:11:44.148Z,34.10
2022-12-05T09:14:12.164Z,34.00
2022-12-05T09:16:41.587Z,33.80
2022-12-05T09:19:12.756Z,33.90
2022-12-05T09:21:40.900Z,34.20
2022-12-05T09:24:09.147Z,34.50
2022-12-05T09:26:37.241Z,34.90
2022-12-05T09:29:05.231Z,35.10
2022-12-05T09:31:33.555Z,34.80
2022-12-05T09:34:03.259Z,34.50
2022-12-05T09:36:32.093Z,34.40
2022-12-05T09:39:01.744Z,34.20
2022-12-05T09:42:09.155Z,34.00
2022-12-05T09:44:42.774Z,33.90
2022-12-05T09:47:15.472Z,33.80
2022-12-05T09:49:47.485Z,33.70
2022-12-05T09:52:18.585Z,34.20
2022-12-05T09:54:47.110Z,34.40
2022-12-05T09:57:15.147Z,34.80
2022-12-05T09:59:43.201Z,35.00
2022-12-05T10:02:19.796Z,34.80
2022-12-05T10:05:00.096Z,34.50
2022-12-05T10:07:32.105Z,34.30
2022-12-05T10:10:05.952Z,34.10
2022-12-05T10:12:49.485Z,33.90
2022-12-05T10:15:19.435Z,33.90
2022-12-05T10:17:48.809Z,33.70
2022-12-05T10:20:19.577Z,33.60
2022-12-05T10:22:49.469Z,34.10
2022-12-05T10:25:19.552Z,34.40
2022-12-05T10:27:50.037Z,34.80
2022-12-05T10:30:18.903Z,35.00
2022-12-05T10:32:52.247Z,34.80
2022-12-05T10:35:22.585Z,34.50
2022-12-05T10:37:52.009Z,34.30
2022-12-05T10:40:20.331Z,34.10
2022-12-05T10:42:49.058Z,34.00
2022-12-05T10:45:19.189Z,33.80
2022-12-05T10:47:47.719Z,33.70
2022-12-05T10:50:23.942Z,33.70
2022-12-05T10:52:53.407Z,34.00
2022-12-05T10:55:21.447Z,34.30
2022-12-05T10:57:51.802Z,34.60
2022-12-05T11:00:22.585Z,34.90
2022-12-05T11:02:50.689Z,35.10
2022-12-05T11:05:30.436Z,35.30
2022-12-05T11:07:58.698Z,35.30
2022-12-05T11:10:28.300Z,34.80
2022-12-05T11:12:57.477Z,34.60
2022-12-05T11:15:26.033Z,34.40
2022-12-05T11:17:54.362Z,34.10
2022-12-05T11:20:39.114Z,34.00
2022-12-05T11:23:25.091Z,33.90
2022-12-05T11:25:53.310Z,33.80
2022-12-05T11:28:32.471Z,34.10
2022-12-05T11:31:01.377Z,34.40
2022-12-05T11:33:30.641Z,34.70
2022-12-05T11:36:04.931Z,34.90
2022-12-05T11:38:34.774Z,35.00
2022-12-05T11:41:26.517Z,34.60
2022-12-05T11:44:03.212Z,34.40
2022-12-05T11:46:35.294Z,34.20
2022-12-05T11:49:15.076Z,34.10
2022-12-05T11:51:46.684Z,33.90
2022-12-05T11:54:56.268Z,33.80
2022-12-05T11:57:15.479Z,33.60
2022-12-05T12:00:09.406Z,34.00
2022-12-05T12:02:45.587Z,34.40
2022-12-05T12:05:16.525Z,34.80
2022-12-05T12:07:53.715Z,35.10
2022-12-05T12:10:25.835Z,34.70
2022-12-05T12:13:00.948Z,34.40
2022-12-05T12:15:37.166Z,34.30
2022-12-05T12:18:09.898Z,34.10
2022-12-05T12:20:45.076Z,34.00
2022-12-05T12:23:25.375Z,33.80
2022-12-05T12:26:04.548Z,33.70
2022-12-05T12:28:37.687Z,33.50
2022-12-05T12:31:14.171Z,34.10
2022-12-05T12:33:44.742Z,34.40
2022-12-05T12:36:17.753Z,34.70
2022-12-05T12:39:07.042Z,35.00
2022-12-05T12:41:58.303Z,34.60
2022-12-05T12:44:43.431Z,34.40
2022-12-05T12:47:12.642Z,34.20
2022-12-05T12:49:49.784Z,34.00
2022-12-05T12:52:19.464Z,33.80
2022-12-05T12:55:05.785Z,33.70
2022-12-05T12:57:40.319Z,33.60
2022-12-05T13:00:14.056Z,33.80
2022-12-05T13:02:44.985Z,34.10
2022-12-05T13:05:23.791Z,34.40
2022-12-05T13:07:52.920Z,34.80
2022-12-05T13:10:26.038Z,35.10
2022-12-05T13:12:54.512Z,35.20
2022-12-05T13:15:25.443Z,35.20
2022-12-05T13:17:53.517Z,34.70
2022-12-05T13:20:22.697Z,34.60
2022-12-05T13:22:51.412Z,34.40
2022-12-05T13:25:20.750Z,34.20
2022-12-05T13:28:00.435Z,34.00
2022-12-05T13:30:28.904Z,34.50
2022-12-05T13:32:58.309Z,33.70
2022-12-05T13:35:48.602Z,33.70
2022-12-05T13:38:40.788Z,34.20
2022-12-05T13:41:26.187Z,34.60
2022-12-05T13:44:05.960Z,34.90
2022-12-05T13:46:34.910Z,35.00
2022-12-05T13:49:07.039Z,34.60
2022-12-05T13:51:36.993Z,34.40
2022-12-05T13:54:06.677Z,34.20
2022-12-05T13:56:48.630Z,34.00
2022-12-05T13:59:49.695Z,33.80
2022-12-05T14:02:51.388Z,33.80
2022-12-05T14:05:45.369Z,33.60
2022-12-05T14:09:04.394Z,34.10
2022-12-05T14:11:32.612Z,34.40
2022-12-05T14:14:04.827Z,34.80
2022-12-05T14:16:45.134Z,35.00
2022-12-05T14:19:50.410Z,34.60
2022-12-05T14:22:46.161Z,34.40
2022-12-05T14:25:25.162Z,34.20
2022-12-05T14:27:55.515Z,34.00
2022-12-05T14:30:25.635Z,33.90
2022-12-05T14:32:57.677Z,33.80
2022-12-05T14:35:31.364Z,33.60
2022-12-05T14:38:13.139Z,33.90
2022-12-05T14:40:50.273Z,34.20
2022-12-05T14:43:22.281Z,34.60
2022-12-05T14:46:04.095Z,34.90
2022-12-05T14:48:42.539Z,34.90
2022-12-05T14:51:48.858Z,34.50
2022-12-05T14:54:18.886Z,34.30
2022-12-05T14:56:50.116Z,34.10
2022-12-05T14:59:29.135Z,34.00
2022-12-05T15:01:59.129Z,33.80
2022-12-05T15:04:36.500Z,33.80
2022-12-05T15:07:07.201Z,33.60
2022-12-05T15:10:01.000Z,34.10
2022-12-05T15:12:34.284Z,34.30
2022-12-05T15:15:13.205Z,34.80
2022-12-05T15:17:53.912Z,35.00
2022-12-05T15:20:40.257Z,35.20
2022-12-05T15:23:41.197Z,35.40
2022-12-05T15:29:21.773Z,34.60
2022-12-05T15:31:53.711Z,34.40
2022-12-05T15:34:26.423Z,34.20
2022-12-05T15:37:00.798Z,34.00
2022-12-05T15:39:31.092Z,33.80
2022-12-05T15:42:09.021Z,33.90
2022-12-05T15:44:39.187Z,34.10
2022-12-05T15:47:17.050Z,34.30
2022-12-05T15:49:52.740Z,34.70
2022-12-05T15:52:26.609Z,34.90
2022-12-05T15:54:59.261Z,35.00
2022-12-05T15:57:36.763Z,34.70
2022-12-05T16:00:12.028Z,34.50
2022-12-05T16:02:50.535Z,34.20
2022-12-05T16:05:25.227Z,34.10
2022-12-05T16:07:56.979Z,33.90
2022-12-05T16:10:29.825Z,33.80
2022-12-05T16:13:04.051Z,33.80
2022-12-05T16:15:32.138Z,34.00
2022-12-05T16:18:05.932Z,34.30
2022-12-05T16:20:40.527Z,34.70
2022-12-05T16:23:27.844Z,34.90
2022-12-05T16:26:19.811Z,35.00
2022-12-05T16:29:01.416Z,34.60
2022-12-05T16:31:31.666Z,34.40
2022-12-05T16:34:04.190Z,34.20
2022-12-05T16:36:32.387Z,34.00
2022-12-05T16:39:05.958Z,33.80
2022-12-05T16:41:37.646Z,33.70
2022-12-05T16:44:17.391Z,33.60
2022-12-05T16:46:48.345Z,34.00
2022-12-05T16:49:26.719Z,34.40
2022-12-05T16:51:58.938Z,34.70
2022-12-05T16:54:29.062Z,35.00
2022-12-05T16:57:02.193Z,34.80
2022-12-05T16:59:34.442Z,34.60
2022-12-05T17:02:09.057Z,34.30
2022-12-05T17:04:37.906Z,34.20
2022-12-05T17:07:06.220Z,34.00
2022-12-05T17:09:38.553Z,33.80
2022-12-05T17:12:12.087Z,33.80
2022-12-05T17:14:41.605Z,33.60
2022-12-05T17:17:16.057Z,33.90
2022-12-05T17:19:47.170Z,34.40
2022-12-05T17:22:17.726Z,34.70
2022-12-05T17:24:47.981Z,34.80
2022-12-05T17:27:25.615Z,35.10
2022-12-05T17:29:56.766Z,35.30
2022-12-05T17:32:26.785Z,35.10
2022-12-05T17:34:55.905Z,34.80
2022-12-05T17:37:24.543Z,34.60
2022-12-05T17:40:00.588Z,34.40
2022-12-05T17:42:28.971Z,34.20
2022-12-05T17:44:59.389Z,34.00
2022-12-05T17:47:28.244Z,33.90
2022-12-05T17:50:02.045Z,33.80
2022-12-05T17:52:32.818Z,33.90
2022-12-05T17:55:01.376Z,34.50
2022-12-05T17:57:30.047Z,34.80
2022-12-05T17:59:59.897Z,35.00
2022-12-05T18:02:28.126Z,35.00
2022-12-05T18:04:59.876Z,34.60
2022-12-05T18:07:28.438Z,34.60
2022-12-05T18:09:59.783Z,34.30
2022-12-05T18:12:30.430Z,34.10
2022-12-05T18:15:03.430Z,33.90
2022-12-05T18:17:31.751Z,33.80
2022-12-05T18:20:03.220Z,33.70
2022-12-05T18:22:33.546Z,33.80
2022-12-05T18:25:09.149Z,34.20
2022-12-05T18:27:37.771Z,34.60
2022-12-05T18:30:11.139Z,34.80
2022-12-05T18:32:42.154Z,35.00
2022-12-05T18:35:15.010Z,34.60
2022-12-05T18:37:43.230Z,34.50
2022-12-05T18:40:18.978Z,34.30
2022-12-05T18:42:49.256Z,34.20
2022-12-05T18:45:18.941Z,34.60
2022-12-05T18:47:49.112Z,33.80
2022-12-05T18:50:20.913Z,33.70
2022-12-05T18:52:51.396Z,33.60
2022-12-05T18:55:51.843Z,34.20
2022-12-05T18:58:15.512Z,34.50
2022-12-05T19:00:47.024Z,34.80
2022-12-05T19:03:18.451Z,35.00
2022-12-05T19:05:46.727Z,34.70
2022-12-05T19:08:14.933Z,34.50
2022-12-05T19:10:43.215Z,34.30
2022-12-05T19:13:11.906Z,34.10
2022-12-05T19:15:45.919Z,34.00
2022-12-05T19:18:16.982Z,34.40
2022-12-05T19:20:51.306Z,33.70
2022-12-05T19:23:19.435Z,33.60
2022-12-05T19:25:55.035Z,34.00
2022-12-05T19:28:23.134Z,34.40
2022-12-05T19:31:01.560Z,34.70
2022-12-05T19:33:34.282Z,34.90
2022-12-05T19:36:10.222Z,35.20
2022-12-05T19:38:38.871Z,35.40
2022-12-05T19:41:11.667Z,35.00
2022-12-05T19:43:40.235Z,34.80
2022-12-05T19:46:12.197Z,34.50
2022-12-05T19:48:43.096Z,34.40
2022-12-05T19:51:11.581Z,34.20
2022-12-05T19:53:43.017Z,34.10
2022-12-05T19:56:13.647Z,33.90
2022-12-05T19:58:42.254Z,33.80
2022-12-05T20:01:13.248Z,34.30
2022-12-05T20:03:45.635Z,34.60
2022-12-05T20:06:13.876Z,34.80
2022-12-05T20:08:45.068Z,35.00
2022-12-05T20:11:14.246Z,35.00
2022-12-05T20:13:47.399Z,34.60
2022-12-05T20:16:23.862Z,34.40
2022-12-05T20:18:53.155Z,34.20
2022-12-05T20:21:22.917Z,34.20
2022-12-05T20:23:52.783Z,34.00
2022-12-05T20:26:24.066Z,33.80
2022-12-05T20:28:59.268Z,33.80
2022-12-05T20:31:29.451Z,34.10
2022-12-05T20:33:59.956Z,34.40
2022-12-05T20:36:36.399Z,34.80
2022-12-05T20:39:11.029Z,35.00
2022-12-05T20:41:39.190Z,35.10
2022-12-05T20:44:11.402Z,34.70
2022-12-05T20:46:43.273Z,34.40
2022-12-05T20:49:12.953Z,34.30
2022-12-05T20:51:44.041Z,34.10
2022-12-05T20:54:12.808Z,34.00
2022-12-05T20:56:46.801Z,33.90
2022-12-05T20:59:15.240Z,33.80
2022-12-05T21:01:44.782Z,34.00
2022-12-05T21:04:13.137Z,34.50
2022-12-05T21:06:42.796Z,34.60
2022-12-05T21:09:16.557Z,34.90
2022-12-05T21:11:44.646Z,35.10
2022-12-05T21:14:12.723Z,34.70
2022-12-05T21:16:47.357Z,34.50
2022-12-05T21:19:18.057Z,34.40
2022-12-05T21:21:49.830Z,34.10
2022-12-05T21:24:20.322Z,34.00
2022-12-05T21:26:49.759Z,33.90
2022-12-05T21:29:17.809Z,33.80
2022-12-05T21:31:49.347Z,33.70
2022-12-05T21:34:20.244Z,34.20
2022-12-05T21:36:51.486Z,34.50
2022-12-05T21:39:19.718Z,34.80
2022-12-05T21:41:47.778Z,35.00
2022-12-05T21:44:18.291Z,35.30
2022-12-05T21:46:50.460Z,35.40
2022-12-05T21:49:19.978Z,35.10
2022-12-05T21:51:48.290Z,34.80
2022-12-05T21:54:16.549Z,34.60
2022-12-05T21:56:46.757Z,34.40
2022-12-05T21:59:20.797Z,34.20
2022-12-05T22:01:52.645Z,34.10
2022-12-05T22:04:23.337Z,34.00
2022-12-05T22:06:51.619Z,33.90
2022-12-05T22:09:19.795Z,34.20
2022-12-05T22:11:50.079Z,34.40
2022-12-05T22:14:18.179Z,34.80
2022-12-05T22:16:50.314Z,35.10
2022-12-05T22:19:20.114Z,34.90
2022-12-05T22:21:49.534Z,34.80
2022-12-05T22:24:17.562Z,34.50
2022-12-05T22:26:47.485Z,34.30
2022-12-05T22:29:21.044Z,34.20
2022-12-05T22:31:49.664Z,34.00
2022-12-05T22:34:23.190Z,33.80
2022-12-05T22:36:52.316Z,33.80
2022-12-05T22:39:23.534Z,34.00
2022-12-05T22:41:52.136Z,34.30
2022-12-05T22:44:20.337Z,34.70
2022-12-05T22:46:52.490Z,34.90
2022-12-05T22:49:25.110Z,35.10
2022-12-05T22:51:53.455Z,35.40
2022-12-05T22:54:29.931Z,34.50
2022-12-05T22:57:00.095Z,34.30
2022-12-05T22:59:28.103Z,34.10
2022-12-05T23:01:56.368Z,34.00
2022-12-05T23:04:31.445Z,33.80
2022-12-05T23:07:03.537Z,33.70
2022-12-05T23:09:36.063Z,33.80
2022-12-05T23:12:04.206Z,34.30
2022-12-05T23:14:33.929Z,34.60
2022-12-05T23:17:02.413Z,34.90
2022-12-05T23:19:37.257Z,35.00
2022-12-05T23:22:08.807Z,34.80
2022-12-05T23:24:40.280Z,34.60
2022-12-05T23:27:11.098Z,34.40
2022-12-05T23:29:42.556Z,34.20
2022-12-05T23:32:10.902Z,34.00
2022-12-05T23:34:48.951Z,33.80
2022-12-05T23:37:17.225Z,33.70
2022-12-05T23:39:49.923Z,33.70
2022-12-05T23:42:29.248Z,34.30
2022-12-05T23:45:05.411Z,34.60
2022-12-05T23:47:40.543Z,34.90
2022-12-05T23:50:22.403Z,35.00
2022-12-05T23:52:50.925Z,35.20
2022-12-05T23:55:25.945Z,35.40
2022-12-05T23:58:00.519Z,35.00
